Time;durP1;ratioP1;P1;durP2;ratioP2;P2;SDS_P1;SDS_P2;PMS_P1;PMS_P2;Temp;Humidity;BMP_temperature;BMP_pressure;BME280_temperature;BME280_humidity;BME280_pressure;Samples;Min_cycle;Max_cycle;Signal;HPM_P1;HPM_P2
2023/08/27 00:01:22;;;;;;;82.02;76.17;;;;;;;;;;1676808;85;25297;-52
2023/08/27 00:03:50;;;;;;;80.67;75.12;;;;;;;;;;1676914;84;25498;-55
2023/08/27 00:06:17;;;;;;;82.02;76.35;;;;;;;;;;1676837;85;29350;-54
2023/08/27 00:08:44;;;;;;;79.62;74.12;;;;;;;;;;1676730;85;25439;-55
2023/08/27 00:11:11;;;;;;;78.62;73.22;;;;;;;;;;1676809;84;25270;-53
2023/08/27 00:13:38;;;;;;;78.20;72.58;;;;;;;;;;1676807;85;25512;-51
2023/08/27 00:16:06;;;;;;;81.15;75.62;;;;;;;;;;1676868;85;25418;-57
2023/08/27 00:18:33;;;;;;;77.85;72.70;;;;;;;;;;1676217;85;27172;-55
2023/08/27 00:21:01;;;;;;;80.90;75.40;;;;;;;;;;1674614;85;25552;-53
2023/08/27 00:23:28;;;;;;;63.00;58.45;;;;;;;;;;1675347;85;25642;-59
2023/08/27 00:25:55;;;;;;;22.65;15.40;;;;;;;;;;1675367;84;25582;-61
2023/08/27 00:28:21;;;;;;;80.17;75.17;;;;;;;;;;1675672;85;25578;-60
2023/08/27 00:30:48;;;;;;;80.80;75.40;;;;;;;;;;1676015;85;27110;-60
2023/08/27 00:33:15;;;;;;;79.58;74.58;;;;;;;;;;1676078;85;25341;-60
2023/08/27 00:35:47;;;;;;;81.22;75.52;;;;;;;;;;1676194;85;25583;-60
2023/08/27 00:38:14;;;;;;;78.67;73.55;;;;;;;;;;1657916;85;25381;-61
2023/08/27 00:40:41;;;;;;;79.12;73.97;;;;;;;;;;1676795;85;25478;-60
2023/08/27 00:43:08;;;;;;;78.87;73.28;;;;;;;;;;1677368;84;27327;-60
2023/08/27 00:45:35;;;;;;;80.57;74.82;;;;;;;;;;1681392;85;25502;-61
2023/08/27 00:48:05;;;;;;;80.42;74.92;;;;;;;;;;1681454;85;25426;-61
2023/08/27 00:50:33;;;;;;;78.50;72.85;;;;;;;;;;1681443;85;25474;-61
2023/08/27 00:53:00;;;;;;;79.27;73.90;;;;;;;;;;1681514;85;25327;-61
2023/08/27 00:55:28;;;;;;;79.92;74.60;;;;;;;;;;1681480;85;27195;-61
2023/08/27 00:57:55;;;;;;;80.85;75.10;;;;;;;;;;1661943;85;25571;-62
2023/08/27 01:00:23;;;;;;;79.50;73.83;;;;;;;;;;1681482;84;25337;-62
2023/08/27 01:02:50;;;;;;;80.10;74.67;;;;;;;;;;1681456;85;25491;-62
2023/08/27 01:05:20;;;;;;;79.50;73.83;;;;;;;;;;1681515;85;25511;-62
2023/08/27 01:07:55;;;;;;;78.67;73.05;;;;;;;;;;1681424;85;27814;-62
2023/08/27 01:10:44;;;;;;;84.13;78.55;;;;;;;;;;1681379;84;25532;-62
2023/08/27 01:13:13;;;;;;;;;;;;;;;;;;1684000;85;25542;-62
2023/08/27 01:15:41;;;;;;;29.48;27.22;;;;;;;;;;1681542;85;25461;-62
2023/08/27 01:18:09;;;;;;;25.60;23.35;;;;;;;;;;1681482;84;25566;-62
2023/08/27 01:20:36;;;;;;;85.12;79.42;;;;;;;;;;1681553;85;27295;-62
2023/08/27 01:23:04;;;;;;;81.53;75.52;;;;;;;;;;1681368;85;25344;-61
2023/08/27 01:25:35;;;;;;;80.05;74.55;;;;;;;;;;1681488;84;25346;-62
2023/08/27 01:28:06;;;;;;;81.37;76.12;;;;;;;;;;1680855;84;25462;-61
2023/08/27 01:30:47;;;;;;;80.95;75.60;;;;;;;;;;1681307;83;25350;-60
2023/08/27 01:33:21;;;;;;;80.57;74.97;;;;;;;;;;1681612;85;27197;-61
2023/08/27 01:35:48;;;;;;;82.53;77.08;;;;;;;;;;1681341;84;25470;-62
2023/08/27 01:38:16;;;;;;;80.62;75.42;;;;;;;;;;1681463;84;25523;-61
2023/08/27 01:40:43;;;;;;;80.45;74.95;;;;;;;;;;1681415;85;25305;-61
2023/08/27 01:43:10;;;;;;;81.47;76.00;;;;;;;;;;1681597;85;25295;-61
2023/08/27 01:45:37;;;;;;;80.28;74.67;;;;;;;;;;1688912;85;27816;-61
2023/08/27 01:48:06;;;;;;;22.27;20.05;;;;;;;;;;1688777;84;25374;-62
2023/08/27 01:50:33;;;;;;;19.40;11.27;;;;;;;;;;1689099;85;25491;-61
2023/08/27 01:53:00;;;;;;;14.40;10.75;;;;;;;;;;1688846;85;25913;-61
2023/08/27 01:55:27;;;;;;;14.18;11.73;;;;;;;;;;1688862;84;25278;-61
2023/08/27 01:57:53;;;;;;;13.08;10.35;;;;;;;;;;1688820;85;27165;-60
2023/08/27 02:00:20;;;;;;;81.30;76.05;;;;;;;;;;1688792;85;25464;-64
2023/08/27 02:02:48;;;;;;;46.50;43.25;;;;;;;;;;1688870;85;25433;-62
2023/08/27 02:05:16;;;;;;;54.13;50.20;;;;;;;;;;1657525;86;25741;-62
2023/08/27 02:07:43;;;;;;;53.33;49.35;;;;;;;;;;1657408;86;25422;-61
2023/08/27 02:10:11;;;;;;;53.75;49.93;;;;;;;;;;1657205;86;27262;-61
2023/08/27 02:12:38;;;;;;;52.20;48.50;;;;;;;;;;1657084;86;25502;-61
2023/08/27 02:15:07;;;;;;;78.90;73.52;;;;;;;;;;1657155;86;25535;-61
2023/08/27 02:17:35;;;;;;;83.30;77.65;;;;;;;;;;1657089;86;25469;-60
2023/08/27 02:20:09;;;;;;;82.22;76.82;;;;;;;;;;1657443;86;25593;-61
2023/08/27 02:22:34;;;;;;;80.53;75.47;;;;;;;;;;1640467;87;27868;-62
2023/08/27 02:25:02;;;;;;;81.08;75.72;;;;;;;;;;1640969;87;27053;-61
2023/08/27 02:27:29;;;;;;;81.08;75.62;;;;;;;;;;1641249;87;25640;-61
2023/08/27 02:29:56;;;;;;;79.05;73.85;;;;;;;;;;1654800;85;25569;-62
2023/08/27 02:32:24;;;;;;;78.33;73.15;;;;;;;;;;1669572;86;25323;-62
2023/08/27 02:34:52;;;;;;;79.75;74.50;;;;;;;;;;1691048;84;27233;-61
2023/08/27 02:37:19;;;;;;;80.97;75.57;;;;;;;;;;1690826;84;27090;-61
2023/08/27 02:39:47;;;;;;;79.58;74.27;;;;;;;;;;1690937;84;25355;-63
2023/08/27 02:42:14;;;;;;;79.05;73.70;;;;;;;;;;1691046;84;25378;-61
2023/08/27 02:44:41;;;;;;;80.55;75.17;;;;;;;;;;1679970;84;25499;-61
2023/08/27 02:47:08;;;;;;;80.10;74.80;;;;;;;;;;1671177;85;27265;-60
2023/08/27 02:49:36;;;;;;;78.15;72.55;;;;;;;;;;1670976;85;25369;-62
2023/08/27 02:52:04;;;;;;;78.78;73.30;;;;;;;;;;1671019;85;25542;-62
2023/08/27 02:54:32;;;;;;;82.22;76.22;;;;;;;;;;1671123;85;25402;-62
2023/08/27 02:56:59;;;;;;;39.13;36.30;;;;;;;;;;1671056;85;25568;-61
2023/08/27 02:59:26;;;;;;;22.17;20.23;;;;;;;;;;1671057;85;27896;-61
2023/08/27 03:01:53;;;;;;;84.00;78.12;;;;;;;;;;1670971;85;25345;-61
2023/08/27 03:04:19;;;;;;;83.42;77.92;;;;;;;;;;1671123;85;25383;-60
2023/08/27 03:06:46;;;;;;;83.30;77.75;;;;;;;;;;1671223;85;25401;-61
2023/08/27 03:09:15;;;;;;;83.07;77.67;;;;;;;;;;1671227;85;25521;-61
2023/08/27 03:11:44;;;;;;;86.40;80.50;;;;;;;;;;1671245;85;27183;-61
2023/08/27 03:14:10;;;;;;;86.65;80.35;;;;;;;;;;1671070;85;25816;-61
2023/08/27 03:16:38;;;;;;;93.58;85.70;;;;;;;;;;1671132;85;25515;-60
2023/08/27 03:19:06;;;;;;;84.92;79.32;;;;;;;;;;1671154;85;25433;-60
2023/08/27 03:21:33;;;;;;;83.82;78.30;;;;;;;;;;1670956;85;25472;-61
2023/08/27 03:24:00;;;;;;;80.40;74.70;;;;;;;;;;1671002;85;27308;-62
2023/08/27 03:26:28;;;;;;;79.20;73.85;;;;;;;;;;1670942;85;25556;-60
2023/08/27 03:28:55;;;;;;;81.50;75.57;;;;;;;;;;1671008;85;25353;-61
2023/08/27 03:31:22;;;;;;;84.60;78.57;;;;;;;;;;1670970;85;25559;-64
2023/08/27 03:33:49;;;;;;;80.83;74.87;;;;;;;;;;1671011;85;25596;-61
2023/08/27 03:36:17;;;;;;;79.53;74.03;;;;;;;;;;1671010;85;27406;-60
2023/08/27 03:38:44;;;;;;;77.58;72.08;;;;;;;;;;1670898;85;25756;-61
2023/08/27 03:41:11;;;;;;;80.15;74.17;;;;;;;;;;1671014;85;25336;-60
2023/08/27 03:43:38;;;;;;;79.12;73.65;;;;;;;;;;1670845;85;25683;-60
2023/08/27 03:46:05;;;;;;;79.90;74.10;;;;;;;;;;1671007;84;25374;-61
2023/08/27 03:48:32;;;;;;;77.10;71.67;;;;;;;;;;1670954;85;27259;-61
2023/08/27 03:51:00;;;;;;;81.95;75.80;;;;;;;;;;1670918;85;25532;-61
2023/08/27 03:53:27;;;;;;;79.35;73.83;;;;;;;;;;1670997;85;25544;-61
2023/08/27 03:55:55;;;;;;;81.80;76.00;;;;;;;;;;1670971;85;25949;-61
2023/08/27 03:58:22;;;;;;;85.25;79.45;;;;;;;;;;1671109;85;25315;-61
2023/08/27 04:00:50;;;;;;;77.20;72.15;;;;;;;;;;1671015;85;27242;-61
2023/08/27 04:03:16;;;;;;;84.95;79.35;;;;;;;;;;1670929;85;25528;-61
2023/08/27 04:05:43;;;;;;;34.23;31.37;;;;;;;;;;1671028;85;25521;-61
2023/08/27 04:08:11;;;;;;;29.50;26.62;;;;;;;;;;1670958;85;25640;-61
2023/08/27 04:10:38;;;;;;;85.28;79.58;;;;;;;;;;1671023;85;25484;-61
2023/08/27 04:13:05;;;;;;;86.45;80.53;;;;;;;;;;1653724;85;27233;-60
2023/08/27 04:15:33;;;;;;;85.57;79.77;;;;;;;;;;1670846;85;25538;-61
2023/08/27 04:18:01;;;;;;;82.88;77.35;;;;;;;;;;1671063;85;25496;-61
2023/08/27 04:20:31;;;;;;;84.50;78.75;;;;;;;;;;1670924;85;25691;-61
2023/08/27 04:22:59;;;;;;;81.02;75.57;;;;;;;;;;1671052;85;25326;-61
2023/08/27 04:25:29;;;;;;;80.67;75.05;;;;;;;;;;1670992;85;27303;-62
2023/08/27 04:27:56;;;;;;;82.25;76.62;;;;;;;;;;1670865;85;25556;-62
2023/08/27 04:30:23;;;;;;;81.53;76.10;;;;;;;;;;1670914;85;25524;-62
2023/08/27 04:32:51;;;;;;;80.57;75.17;;;;;;;;;;1670901;85;25698;-62
2023/08/27 04:35:18;;;;;;;81.70;75.87;;;;;;;;;;1670958;85;25355;-61
2023/08/27 04:37:45;;;;;;;80.40;74.97;;;;;;;;;;1670965;85;27225;-62
2023/08/27 04:40:12;;;;;;;81.00;75.05;;;;;;;;;;1670936;85;25378;-62
2023/08/27 04:42:39;;;;;;;84.75;78.78;;;;;;;;;;1670997;85;25527;-61
2023/08/27 04:45:10;;;;;;;85.32;79.53;;;;;;;;;;1670797;85;25727;-58
2023/08/27 04:47:37;;;;;;;87.65;81.55;;;;;;;;;;1670934;85;25519;-58
2023/08/27 04:50:07;;;;;;;87.00;80.90;;;;;;;;;;1670928;85;27219;-58
2023/08/27 04:52:35;;;;;;;85.83;79.58;;;;;;;;;;1670861;85;25556;-59
2023/08/27 04:55:07;;;;;;;82.70;76.80;;;;;;;;;;1670873;85;25500;-58
2023/08/27 04:57:36;;;;;;;82.47;76.57;;;;;;;;;;1670898;85;25694;-58
2023/08/27 05:00:07;;;;;;;82.45;76.53;;;;;;;;;;1671056;85;25385;-58
2023/08/27 05:02:35;;;;;;;80.65;75.05;;;;;;;;;;1670934;85;28772;-58
2023/08/27 05:05:07;;;;;;;84.40;78.17;;;;;;;;;;1670812;85;25612;-56
2023/08/27 05:07:33;;;;;;;86.50;80.50;;;;;;;;;;1670894;85;25471;-58
2023/08/27 05:10:00;;;;;;;80.15;74.65;;;;;;;;;;1653635;85;25687;-58
2023/08/27 05:12:27;;;;;;;82.45;76.37;;;;;;;;;;1670919;85;25354;-57
2023/08/27 05:14:54;;;;;;;80.22;74.70;;;;;;;;;;1670845;85;27276;-57
2023/08/27 05:17:21;;;;;;;80.57;74.58;;;;;;;;;;1670808;85;25338;-58
2023/08/27 05:19:48;;;;;;;85.40;78.28;;;;;;;;;;1670901;85;25619;-58
2023/08/27 05:22:16;;;;;;;81.75;75.92;;;;;;;;;;1670908;85;25691;-57
2023/08/27 05:24:45;;;;;;;82.55;76.97;;;;;;;;;;1670915;85;25512;-58
2023/08/27 05:27:11;;;;;;;78.75;73.22;;;;;;;;;;1670921;85;27272;-58
2023/08/27 05:29:38;;;;;;;79.58;73.70;;;;;;;;;;1670853;85;25493;-59
2023/08/27 05:32:05;;;;;;;80.07;74.27;;;;;;;;;;1670908;85;25489;-58
2023/08/27 05:34:33;;;;;;;80.55;74.47;;;;;;;;;;1670801;85;25663;-58
2023/08/27 05:37:00;;;;;;;81.82;75.95;;;;;;;;;;1670957;85;25532;-58
2023/08/27 05:39:28;;;;;;;79.37;73.42;;;;;;;;;;1670868;85;27229;-58
2023/08/27 05:41:56;;;;;;;77.55;72.12;;;;;;;;;;1653938;85;25504;-58
2023/08/27 05:44:22;;;;;;;77.42;71.95;;;;;;;;;;1670902;85;25395;-59
2023/08/27 05:46:50;;;;;;;79.07;73.35;;;;;;;;;;1670757;85;25600;-59
2023/08/27 05:49:17;;;;;;;79.80;74.00;;;;;;;;;;1670908;85;25379;-62
2023/08/27 05:51:43;;;;;;;85.40;79.50;;;;;;;;;;1670912;85;27881;-59
2023/08/27 05:54:11;;;;;;;81.30;75.83;;;;;;;;;;1670815;85;25553;-59
2023/08/27 05:56:38;;;;;;;83.67;78.07;;;;;;;;;;1670889;85;25529;-59
2023/08/27 05:59:04;;;;;;;82.95;77.40;;;;;;;;;;1670757;85;25618;-60
2023/08/27 06:01:31;;;;;;;83.03;77.40;;;;;;;;;;1670891;85;25496;-59
2023/08/27 06:03:59;;;;;;;81.85;76.35;;;;;;;;;;1670880;85;27192;-58
2023/08/27 06:06:26;;;;;;;79.73;74.43;;;;;;;;;;1671048;85;25826;-59
2023/08/27 06:08:53;;;;;;;81.15;75.42;;;;;;;;;;1670872;85;25345;-59
2023/08/27 06:11:20;;;;;;;76.90;71.60;;;;;;;;;;1670833;85;25707;-59
2023/08/27 06:13:47;;;;;;;75.80;70.62;;;;;;;;;;1670898;85;25383;-58
2023/08/27 06:16:14;;;;;;;81.55;76.12;;;;;;;;;;1670877;85;27239;-58
2023/08/27 06:18:41;;;;;;;79.50;74.32;;;;;;;;;;1670721;85;25457;-59
2023/08/27 06:21:09;;;;;;;83.00;77.30;;;;;;;;;;1671121;85;25371;-59
2023/08/27 06:23:36;;;;;;;80.77;75.30;;;;;;;;;;1670767;85;25634;-60
2023/08/27 06:26:05;;;;;;;80.42;74.75;;;;;;;;;;1670904;85;25386;-60
2023/08/27 06:28:33;;;;;;;83.95;78.30;;;;;;;;;;1670991;85;27247;-59
2023/08/27 06:31:01;;;;;;;81.42;75.97;;;;;;;;;;1671008;85;25532;-59
2023/08/27 06:33:28;;;;;;;54.85;50.43;;;;;;;;;;1671010;85;25521;-59
2023/08/27 06:35:55;;;;;;;48.02;44.67;;;;;;;;;;1670803;85;25680;-55
2023/08/27 06:38:22;;;;;;;83.60;78.30;;;;;;;;;;1670794;85;25492;-58
2023/08/27 06:40:49;;;;;;;78.80;73.50;;;;;;;;;;1670815;85;27280;-59
2023/08/27 06:43:16;;;;;;;84.37;78.87;;;;;;;;;;1670795;85;25356;-59
2023/08/27 06:45:43;;;;;;;81.05;75.83;;;;;;;;;;1677620;84;25302;-59
2023/08/27 06:48:10;;;;;;;82.55;76.95;;;;;;;;;;1690687;84;26248;-59
2023/08/27 06:50:37;;;;;;;80.45;75.45;;;;;;;;;;1690812;84;25402;-58
2023/08/27 06:53:05;;;;;;;55.15;51.35;;;;;;;;;;1690771;84;28040;-59
2023/08/27 06:55:33;;;;;;;75.42;70.40;;;;;;;;;;1690954;84;25501;-59
2023/08/27 06:58:00;;;;;;;78.87;73.87;;;;;;;;;;1690747;84;25323;-59
2023/08/27 07:00:27;;;;;;;74.85;69.95;;;;;;;;;;1690756;84;25601;-59
2023/08/27 07:02:54;;;;;;;76.22;71.33;;;;;;;;;;1690834;84;25400;-59
2023/08/27 07:05:22;;;;;;;76.17;71.30;;;;;;;;;;1690720;84;27186;-59
2023/08/27 07:07:48;;;;;;;72.65;67.80;;;;;;;;;;1690830;84;25551;-60
2023/08/27 07:10:15;;;;;;;74.32;69.55;;;;;;;;;;1690900;84;25333;-60
2023/08/27 07:12:44;;;;;;;71.53;66.85;;;;;;;;;;1690876;84;25685;-60
2023/08/27 07:15:13;;;;;;;;;;;;;;;;;;1693426;84;25297;-59
2023/08/27 07:17:41;;;;;;;71.00;66.77;;;;;;;;;;1691182;84;27380;-59
2023/08/27 07:20:12;;;;;;;76.02;71.42;;;;;;;;;;1690876;84;25727;-59
2023/08/27 07:22:39;;;;;;;73.35;68.55;;;;;;;;;;1690912;84;25348;-59
2023/08/27 07:25:09;;;;;;;74.95;70.15;;;;;;;;;;1690873;84;25708;-59
2023/08/27 07:27:36;;;;;;;70.85;66.50;;;;;;;;;;1690916;84;25258;-58
2023/08/27 07:30:06;;;;;;;71.62;67.32;;;;;;;;;;1690903;84;26866;-59
2023/08/27 07:32:33;;;;;;;70.65;65.50;;;;;;;;;;1690843;84;25390;-58
2023/08/27 07:35:00;;;;;;;69.20;65.10;;;;;;;;;;1690903;84;25479;-59
2023/08/27 07:37:27;;;;;;;70.50;66.30;;;;;;;;;;1690860;84;26199;-59
2023/08/27 07:39:54;;;;;;;68.33;64.32;;;;;;;;;;1690899;84;25389;-58
2023/08/27 07:42:21;;;;;;;69.77;65.65;;;;;;;;;;1690905;84;27243;-59
2023/08/27 07:44:49;;;;;;;68.15;64.05;;;;;;;;;;1690896;84;25526;-59
2023/08/27 07:47:16;;;;;;;68.40;64.15;;;;;;;;;;1690801;84;25516;-59
2023/08/27 07:49:43;;;;;;;69.15;64.87;;;;;;;;;;1690860;84;26204;-59
2023/08/27 07:52:10;;;;;;;66.55;62.40;;;;;;;;;;1690901;84;25468;-60
2023/08/27 07:54:37;;;;;;;65.97;61.88;;;;;;;;;;1690853;84;27269;-59
2023/08/27 07:57:05;;;;;;;66.25;62.27;;;;;;;;;;1690800;84;25340;-60
2023/08/27 07:59:32;;;;;;;65.52;61.70;;;;;;;;;;1690975;84;26593;-58
2023/08/27 08:01:59;;;;;;;63.28;59.48;;;;;;;;;;1690859;84;26278;-59
2023/08/27 08:04:26;;;;;;;64.65;60.23;;;;;;;;;;1690934;84;25536;-59
2023/08/27 08:06:53;;;;;;;62.78;58.65;;;;;;;;;;1691007;84;27279;-61
2023/08/27 08:09:22;;;;;;;67.78;63.63;;;;;;;;;;1691138;84;25559;-60
2023/08/27 08:11:52;;;;;;;3.25;3.15;;;;;;;;;;1690201;84;25617;-60
2023/08/27 08:14:19;;;;;;;62.00;58.30;;;;;;;;;;1690476;84;25506;-63
2023/08/27 08:16:49;;;;;;;10.80;10.30;;;;;;;;;;1690886;84;25610;-63
2023/08/27 08:19:15;;;;;;;47.08;43.90;;;;;;;;;;1690242;83;27293;-62
2023/08/27 08:21:45;;;;;;;8.40;7.90;;;;;;;;;;1690667;84;25614;-63
2023/08/27 11:04:53;;;;;;;61.45;58.15;;;;;;;35.78;39.13;99544.00;1821275;77;25281;-65
2023/08/27 11:07:26;;;;;;;60.50;57.10;;;;;;;35.65;39.52;99536.72;1718122;83;25385;-65
2023/08/27 11:09:57;;;;;;;5.62;5.42;;;;;;;35.88;39.88;99541.12;1737122;82;27180;-65
2023/08/27 23:18:10;;;;;;;81.67;75.83;;;;;;;21.82;84.57;99320.76;1866479;76;34769;-64
2023/08/27 23:20:36;;;;;;;82.30;76.80;;;;;;;21.68;85.02;99322.89;1823712;78;25647;-66
2023/08/27 23:23:04;;;;;;;82.40;76.87;;;;;;;21.60;84.97;99329.81;1824468;78;27581;-66
2023/08/27 23:25:31;;;;;;;87.62;81.45;;;;;;;21.55;85.89;99330.86;1824386;78;25674;-66
2023/08/27 23:28:00;;;;;;;81.02;75.52;;;;;;;21.50;85.84;99331.30;1824466;78;25367;-65
2023/08/27 23:30:26;;;;;;;79.20;74.00;;;;;;;21.47;86.37;99339.78;1824319;78;25548;-65
2023/08/27 23:32:52;;;;;;;81.02;75.32;;;;;;;21.44;87.08;99348.81;1824554;78;25385;-65
2023/08/27 23:35:19;;;;;;;80.95;74.97;;;;;;;21.41;87.41;99341.37;1824473;78;27630;-66
2023/08/27 23:37:45;;;;;;;81.45;75.62;;;;;;;21.39;87.80;99343.14;1824399;77;25511;-66
2023/08/27 23:40:11;;;;;;;85.20;79.07;;;;;;;21.38;87.20;99344.31;1824460;78;25549;-65
2023/08/27 23:42:37;;;;;;;80.47;74.80;;;;;;;21.37;87.60;99344.15;1824395;78;25548;-65
2023/08/27 23:45:06;;;;;;;82.02;76.22;;;;;;;21.39;87.18;99345.13;1824530;78;25593;-65
2023/08/27 23:47:32;;;;;;;84.22;78.20;;;;;;;21.38;87.39;99349.05;1824596;78;27571;-66
2023/08/27 23:49:58;;;;;;;81.90;75.80;;;;;;;21.39;87.41;99352.00;1824392;78;25530;-66
2023/08/27 23:52:24;;;;;;;81.78;76.17;;;;;;;21.39;87.09;99353.37;1824425;78;25628;-66
2023/08/27 23:54:51;;;;;;;78.72;73.42;;;;;;;21.39;87.14;99360.25;1824436;78;25631;-66
2023/08/27 23:57:17;;;;;;;80.80;75.17;;;;;;;21.39;86.82;99378.91;1824473;78;25425;-66
2023/08/27 23:59:43;;;;;;;82.47;76.60;;;;;;;21.40;86.56;99376.92;1824473;78;27479;-65
